createdAt,value
2023-04-15T00:01:01.514Z,1.25
2023-04-15T00:03:29.039Z,1.60
2023-04-15T00:05:56.534Z,1.60
2023-04-15T00:08:24.052Z,1.38
2023-04-15T00:10:51.416Z,1.50
2023-04-15T00:13:18.279Z,1.50
2023-04-15T00:15:45.500Z,1.63
2023-04-15T00:18:12.806Z,2.88
2023-04-15T00:20:40.190Z,2.83
2023-04-15T00:23:07.867Z,3.60
2023-04-15T00:25:35.108Z,2.80
2023-04-15T00:28:01.984Z,3.47
2023-04-15T00:30:29.219Z,2.60
2023-04-15T00:32:56.220Z,2.20
2023-04-15T00:35:24.284Z,2.13
2023-04-15T00:37:51.688Z,2.05
2023-04-15T00:40:21.206Z,2.10
2023-04-15T00:42:48.201Z,2.10
2023-04-15T00:45:15.946Z,2.25
2023-04-15T00:47:44.020Z,2.43
2023-04-15T00:50:12.899Z,2.30
2023-04-15T00:52:41.198Z,2.55
2023-04-15T00:55:09.514Z,2.50
2023-04-15T00:57:36.960Z,2.75
2023-04-15T01:00:05.886Z,2.60
2023-04-15T01:02:33.703Z,3.13
2023-04-15T01:05:04.380Z,3.45
2023-04-15T01:07:32.141Z,3.08
2023-04-15T01:09:59.882Z,2.70
2023-04-15T01:12:28.105Z,2.30
2023-04-15T01:14:56.317Z,1.95
2023-04-15T01:17:25.340Z,1.60
2023-04-15T01:19:53.219Z,1.73
2023-04-15T01:22:20.235Z,2.53
2023-04-15T01:24:56.061Z,2.90
2023-04-15T01:27:23.302Z,2.20
2023-04-15T01:29:50.586Z,2.70
2023-04-15T01:32:17.512Z,2.63
2023-04-15T01:34:44.747Z,2.10
2023-04-15T01:37:12.014Z,1.70
2023-04-15T01:39:39.678Z,1.60
2023-04-15T01:42:07.132Z,1.70
2023-04-15T01:44:34.394Z,1.45
2023-04-15T01:47:01.483Z,1.20
2023-04-15T01:49:28.783Z,1.30
2023-04-15T01:51:56.180Z,1.10
2023-04-15T01:54:23.514Z,1.38
2023-04-15T01:56:52.238Z,2.30
2023-04-15T01:59:19.514Z,2.40
2023-04-15T02:01:46.803Z,2.70
2023-04-15T02:04:16.883Z,2.50
2023-04-15T02:06:44.084Z,2.10
2023-04-15T02:09:12.535Z,2.03
2023-04-15T02:11:39.622Z,2.13
2023-04-15T02:14:07.212Z,1.93
2023-04-15T02:16:34.554Z,1.50
2023-04-15T02:19:02.305Z,1.48
2023-04-15T02:21:30.712Z,1.88
2023-04-15T02:23:58.156Z,2.00
2023-04-15T02:26:25.536Z,2.37
2023-04-15T02:28:55.192Z,2.60
2023-04-15T02:31:22.164Z,2.40
2023-04-15T02:33:49.615Z,2.70
2023-04-15T02:36:16.700Z,2.80
2023-04-15T02:38:44.517Z,2.90
2023-04-15T02:41:13.839Z,2.80
2023-04-15T02:43:41.326Z,2.90
2023-04-15T02:46:13.019Z,2.65
2023-04-15T02:48:40.410Z,2.60
2023-04-15T02:51:22.992Z,2.57
2023-04-15T02:53:50.814Z,2.47
2023-04-15T02:56:19.542Z,2.70
2023-04-15T02:58:46.900Z,2.60
2023-04-15T03:01:14.015Z,2.28
2023-04-15T03:03:42.406Z,2.00
2023-04-15T03:06:09.613Z,1.70
2023-04-15T03:08:37.512Z,1.90
2023-04-15T03:11:05.125Z,2.88
2023-04-15T03:13:33.813Z,2.67
2023-04-15T03:16:07.369Z,2.70
2023-04-15T03:18:34.820Z,2.92
2023-04-15T03:21:03.679Z,2.90
2023-04-15T03:23:34.957Z,2.70
2023-04-15T03:26:03.454Z,2.60
2023-04-15T03:28:32.922Z,2.23
2023-04-15T03:31:00.785Z,2.95
2023-04-15T03:33:28.162Z,2.60
2023-04-15T03:35:55.074Z,2.60
2023-04-15T03:38:22.303Z,2.70
2023-04-15T03:40:49.246Z,2.70
2023-04-15T03:43:16.856Z,2.22
2023-04-15T03:45:44.044Z,2.20
2023-04-15T03:48:17.597Z,2.75
2023-04-15T03:50:46.247Z,2.28
2023-04-15T03:53:13.498Z,2.20
2023-04-15T03:55:40.418Z,2.47
2023-04-15T03:58:07.817Z,2.78
2023-04-15T04:00:34.695Z,2.42
2023-04-15T04:03:02.096Z,1.95
2023-04-15T04:05:30.130Z,2.17
2023-04-15T04:07:57.351Z,2.25
2023-04-15T04:10:24.221Z,2.40
2023-04-15T04:12:51.516Z,2.70
2023-04-15T04:15:18.498Z,2.13
2023-04-15T04:17:45.982Z,2.00
2023-04-15T04:20:12.993Z,3.40
2023-04-15T04:22:41.450Z,3.08
2023-04-15T04:25:10.304Z,3.25
2023-04-15T04:27:37.648Z,2.92
2023-04-15T04:30:05.811Z,3.10
2023-04-15T04:32:33.083Z,2.72
2023-04-15T04:34:59.995Z,2.97
2023-04-15T04:37:27.459Z,2.85
2023-04-15T04:39:54.357Z,3.13
2023-04-15T04:42:22.000Z,3.10
2023-04-15T04:44:48.847Z,3.15
2023-04-15T04:47:16.715Z,3.63
2023-04-15T04:49:43.599Z,3.08
2023-04-15T04:52:10.955Z,3.33
2023-04-15T04:54:37.839Z,3.83
2023-04-15T04:57:05.122Z,3.60
2023-04-15T04:59:32.311Z,3.10
2023-04-15T05:01:59.878Z,3.53
2023-04-15T05:04:26.886Z,3.05
2023-04-15T05:06:54.067Z,2.90
2023-04-15T05:09:21.022Z,2.70
2023-04-15T05:11:48.216Z,3.00
2023-04-15T05:14:15.108Z,3.00
2023-04-15T05:16:42.513Z,3.30
2023-04-15T05:19:09.393Z,2.67
2023-04-15T05:21:39.317Z,2.97
2023-04-15T05:24:07.185Z,2.90
2023-04-15T05:26:34.591Z,2.80
2023-04-15T05:29:01.962Z,3.13
2023-04-15T05:31:29.649Z,2.90
2023-04-15T05:33:56.585Z,2.53
2023-04-15T05:36:23.876Z,2.10
2023-04-15T05:38:51.372Z,2.90
2023-04-15T05:41:19.918Z,2.83
2023-04-15T05:43:46.977Z,2.83
2023-04-15T05:46:14.250Z,2.65
2023-04-15T05:48:41.810Z,2.80
2023-04-15T05:51:09.811Z,2.80
2023-04-15T05:53:37.194Z,2.88
2023-04-15T05:56:04.730Z,3.00
2023-04-15T05:58:31.632Z,2.80
2023-04-15T06:00:59.057Z,2.72
2023-04-15T06:03:26.564Z,2.72
2023-04-15T06:05:54.546Z,2.80
2023-04-15T06:08:21.775Z,3.03
2023-04-15T06:10:49.010Z,2.70
2023-04-15T06:13:17.095Z,2.70
2023-04-15T06:15:44.421Z,2.20
2023-04-15T06:18:11.956Z,2.70
2023-04-15T06:20:39.237Z,3.07
2023-04-15T06:23:06.389Z,2.80
2023-04-15T06:25:33.631Z,3.03
2023-04-15T06:28:00.517Z,2.30
2023-04-15T06:30:27.813Z,2.40
2023-04-15T06:32:55.516Z,2.70
2023-04-15T06:35:23.338Z,2.60
2023-04-15T06:37:50.498Z,2.10
2023-04-15T06:40:17.868Z,2.58
2023-04-15T06:42:44.755Z,2.80
2023-04-15T06:45:12.273Z,2.80
2023-04-15T06:47:39.187Z,2.50
2023-04-15T06:50:06.906Z,3.22
2023-04-15T06:52:33.761Z,2.85
2023-04-15T06:55:02.315Z,2.90
2023-04-15T06:57:29.205Z,2.87
2023-04-15T06:59:56.499Z,3.03
2023-04-15T07:02:23.603Z,2.97
2023-04-15T07:04:51.291Z,2.70
2023-04-15T07:07:18.239Z,2.88
2023-04-15T07:09:45.541Z,2.40
2023-04-15T07:12:12.490Z,2.78
2023-04-15T07:14:39.745Z,2.88
2023-04-15T07:17:07.016Z,3.03
2023-04-15T07:19:34.349Z,2.67
2023-04-15T07:22:01.238Z,3.10
2023-04-15T07:24:28.865Z,3.00
2023-04-15T07:27:01.185Z,2.38
2023-04-15T07:29:28.702Z,2.60
2023-04-15T07:31:57.337Z,2.92
2023-04-15T07:34:24.806Z,2.50
2023-04-15T07:36:52.212Z,2.33
2023-04-15T07:39:19.619Z,2.30
2023-04-15T07:41:46.790Z,2.35
2023-04-15T07:44:14.068Z,2.80
2023-04-15T07:46:41.410Z,2.80
2023-04-15T07:49:08.849Z,2.72
2023-04-15T07:51:35.754Z,3.95
2023-04-15T07:54:03.482Z,3.25
2023-04-15T07:56:30.437Z,3.42
2023-04-15T07:58:57.735Z,3.57
2023-04-15T08:01:24.774Z,3.30
2023-04-15T08:03:52.877Z,2.85
2023-04-15T08:06:19.910Z,2.92
2023-04-15T08:08:47.235Z,2.80
2023-04-15T08:11:14.748Z,2.77
2023-04-15T08:13:42.559Z,2.53
2023-04-15T08:16:24.803Z,2.75
2023-04-15T08:18:55.729Z,2.30
2023-04-15T08:21:23.012Z,2.40
2023-04-15T08:23:51.728Z,2.57
2023-04-15T08:26:19.650Z,2.20
2023-04-15T08:28:47.267Z,2.50
2023-04-15T08:31:15.786Z,3.80
2023-04-15T08:33:43.145Z,4.70
2023-04-15T08:36:10.678Z,3.90
2023-04-15T08:38:38.256Z,3.55
2023-04-15T08:41:10.507Z,3.50
2023-04-15T08:43:47.209Z,3.53
2023-04-15T08:46:14.439Z,3.42
2023-04-15T08:48:43.210Z,3.40
2023-04-15T08:51:11.107Z,3.70
2023-04-15T08:53:38.974Z,3.30
2023-04-15T08:56:10.361Z,2.75
2023-04-15T08:58:38.303Z,3.17
2023-04-15T09:01:05.281Z,3.10
2023-04-15T09:03:32.830Z,2.90
2023-04-15T09:06:00.054Z,2.65
2023-04-15T09:08:27.353Z,3.13
2023-04-15T09:10:54.466Z,2.90
2023-04-15T09:13:22.162Z,2.72
2023-04-15T09:15:49.408Z,3.10
2023-04-15T09:18:29.412Z,3.20
2023-04-15T09:20:56.826Z,3.00
2023-04-15T09:23:24.257Z,3.80
2023-04-15T09:25:51.281Z,3.03
2023-04-15T09:28:24.887Z,3.30
2023-04-15T09:30:55.514Z,3.17
2023-04-15T09:33:22.848Z,2.83
2023-04-15T09:36:05.150Z,2.63
2023-04-15T09:38:33.152Z,2.08
2023-04-15T09:41:00.267Z,3.10
2023-04-15T09:43:40.965Z,2.78
2023-04-15T09:46:08.023Z,3.40
2023-04-15T09:48:36.862Z,2.85
2023-04-15T09:51:03.980Z,3.08
2023-04-15T09:53:34.278Z,2.67
2023-04-15T09:56:02.738Z,2.25
2023-04-15T09:58:32.072Z,2.42
2023-04-15T10:01:00.685Z,2.80
2023-04-15T10:03:31.377Z,2.35
2023-04-15T10:06:00.810Z,2.90
2023-04-15T10:08:30.309Z,3.10
2023-04-15T10:10:57.865Z,3.63
2023-04-15T10:13:26.920Z,3.47
2023-04-15T10:16:20.509Z,3.13
2023-04-15T10:18:54.767Z,3.20
2023-04-15T10:21:23.916Z,3.92
2023-04-15T10:23:51.705Z,3.00
2023-04-15T10:26:18.858Z,2.83
2023-04-15T10:28:48.479Z,2.58
2023-04-15T10:31:17.024Z,2.50
2023-04-15T10:33:45.344Z,3.00
2023-04-15T10:36:13.355Z,2.38
2023-04-15T10:38:43.368Z,2.08
2023-04-15T10:41:22.244Z,2.13
2023-04-15T10:44:05.765Z,2.03
2023-04-15T10:46:44.185Z,2.05
2023-04-15T10:49:13.876Z,3.00
2023-04-15T10:51:43.023Z,2.80
2023-04-15T10:54:30.798Z,2.85
2023-04-15T10:57:01.627Z,2.93
2023-04-15T10:59:59.502Z,2.67
2023-04-15T11:02:45.396Z,2.55
2023-04-15T11:05:14.603Z,2.97
2023-04-15T11:07:44.502Z,3.17
2023-04-15T11:10:17.842Z,2.90
2023-04-15T11:12:46.160Z,2.85
2023-04-15T11:15:32.287Z,2.40
2023-04-15T11:18:10.647Z,2.60
2023-04-15T11:20:39.636Z,3.00
2023-04-15T11:23:14.655Z,2.77
2023-04-15T11:25:43.900Z,2.47
2023-04-15T11:28:12.557Z,2.60
2023-04-15T11:30:40.768Z,2.65
2023-04-15T11:33:09.974Z,2.90
2023-04-15T11:35:37.332Z,2.93
2023-04-15T11:38:05.633Z,2.70
2023-04-15T11:40:36.044Z,2.70
2023-04-15T11:43:09.252Z,2.75
2023-04-15T11:45:38.055Z,3.10
2023-04-15T11:48:07.085Z,3.05
2023-04-15T11:50:35.280Z,3.47
2023-04-15T11:53:06.900Z,3.53
2023-04-15T11:55:49.761Z,3.10
2023-04-15T11:58:26.888Z,3.28
2023-04-15T12:00:57.188Z,3.42
2023-04-15T12:03:29.836Z,3.40
2023-04-15T12:06:20.431Z,3.17
2023-04-15T12:08:53.389Z,2.60
2023-04-15T12:11:41.831Z,2.50
2023-04-15T12:14:10.006Z,2.40
2023-04-15T12:16:49.202Z,2.33
2023-04-15T12:19:22.856Z,2.00
2023-04-15T12:21:50.582Z,2.20
2023-04-15T12:24:21.960Z,2.50
2023-04-15T12:26:54.497Z,1.98
2023-04-15T12:29:26.313Z,1.93
2023-04-15T12:32:06.259Z,1.73
2023-04-15T12:34:36.020Z,1.88
2023-04-15T12:37:05.381Z,1.70
2023-04-15T12:39:35.792Z,1.70
2023-04-15T12:42:04.520Z,1.50
2023-04-15T12:44:31.965Z,1.40
2023-04-15T12:47:00.464Z,3.25
2023-04-15T12:49:28.257Z,2.97
2023-04-15T12:52:00.244Z,1.95
2023-04-15T12:54:28.025Z,1.50
2023-04-15T12:56:56.038Z,1.80
2023-04-15T12:59:24.345Z,1.48
2023-04-15T13:01:53.563Z,1.55
2023-04-15T13:04:21.526Z,1.50
2023-04-15T13:06:48.994Z,1.90
2023-04-15T13:09:16.177Z,1.40
2023-04-15T13:11:44.052Z,1.70
2023-04-15T13:14:14.362Z,1.90
2023-04-15T13:16:41.783Z,1.40
2023-04-15T13:19:08.908Z,1.60
2023-04-15T13:21:36.591Z,1.50
2023-04-15T13:24:05.249Z,1.40
2023-04-15T13:26:33.012Z,1.77
2023-04-15T13:29:02.129Z,1.70
2023-04-15T13:31:29.410Z,1.40
2023-04-15T13:33:57.619Z,1.40
2023-04-15T13:36:25.067Z,1.38
2023-04-15T13:38:52.272Z,1.50
2023-04-15T13:41:20.704Z,1.70
2023-04-15T13:43:47.746Z,1.50
2023-04-15T13:46:15.154Z,1.40
2023-04-15T13:48:42.389Z,2.42
2023-04-15T13:51:09.757Z,1.65
2023-04-15T13:53:38.398Z,1.85
2023-04-15T13:56:10.533Z,1.60
2023-04-15T13:58:38.303Z,1.48
2023-04-15T14:01:07.299Z,1.73
2023-04-15T14:03:36.551Z,1.67
2023-04-15T14:06:05.878Z,1.50
2023-04-15T14:08:33.037Z,1.47
2023-04-15T14:11:00.352Z,1.90
2023-04-15T14:13:27.459Z,2.15
2023-04-15T14:15:54.994Z,1.60
2023-04-15T14:18:22.288Z,1.60
2023-04-15T14:20:49.605Z,1.60
2023-04-15T14:23:16.827Z,1.80
2023-04-15T14:25:46.706Z,1.80
2023-04-15T14:28:15.124Z,1.85
2023-04-15T14:30:42.643Z,1.70
2023-04-15T14:33:09.738Z,1.80
2023-04-15T14:35:37.329Z,1.90
2023-04-15T14:38:04.359Z,1.70
2023-04-15T14:40:32.096Z,1.85
2023-04-15T14:42:59.001Z,1.98
2023-04-15T14:45:26.415Z,1.63
2023-04-15T14:47:53.812Z,1.65
2023-04-15T14:50:21.185Z,2.10
2023-04-15T14:52:48.147Z,1.90
2023-04-15T14:55:15.390Z,1.98
2023-04-15T14:57:43.383Z,1.70
2023-04-15T15:00:12.842Z,1.90
2023-04-15T15:02:43.649Z,2.03
2023-04-15T15:05:12.300Z,2.15
2023-04-15T15:07:41.363Z,2.03
2023-04-15T15:10:08.902Z,1.80
2023-04-15T15:12:36.083Z,2.22
2023-04-15T15:15:12.297Z,1.92
2023-04-15T15:17:46.931Z,2.00
2023-04-15T15:20:14.287Z,2.33
2023-04-15T15:22:41.242Z,3.25
2023-04-15T15:25:08.557Z,3.30
2023-04-15T15:27:37.732Z,3.22
2023-04-15T15:30:07.103Z,2.90
2023-04-15T15:32:34.109Z,3.60
2023-04-15T15:35:01.619Z,3.30
2023-04-15T15:37:31.049Z,2.73
2023-04-15T15:39:58.473Z,2.40
2023-04-15T15:42:25.363Z,2.45
2023-04-15T15:44:55.402Z,2.53
2023-04-15T15:47:22.684Z,2.65
2023-04-15T15:49:50.004Z,2.23
2023-04-15T15:52:16.966Z,2.30
2023-04-15T15:54:43.956Z,2.10
2023-04-15T15:57:11.476Z,1.88
2023-04-15T15:59:41.398Z,2.70
2023-04-15T16:02:13.025Z,2.10
2023-04-15T16:04:40.746Z,2.08
2023-04-15T16:07:08.143Z,2.10
2023-04-15T16:09:35.218Z,2.00
2023-04-15T16:12:04.304Z,1.92
2023-04-15T16:14:31.250Z,1.80
2023-04-15T16:16:58.562Z,2.00
2023-04-15T16:19:25.632Z,1.80
2023-04-15T16:21:52.855Z,1.70
2023-04-15T16:24:19.921Z,2.00
2023-04-15T16:26:47.370Z,1.40
2023-04-15T16:29:14.288Z,1.58
2023-04-15T16:31:41.709Z,1.40
2023-04-15T16:34:08.853Z,1.50
2023-04-15T16:36:36.405Z,7.30
2023-04-15T16:39:03.833Z,3.77
2023-04-15T16:41:33.235Z,2.30
2023-04-15T16:44:02.134Z,1.70
2023-04-15T16:46:29.887Z,4.10
2023-04-15T16:48:57.059Z,3.72
2023-04-15T16:51:24.372Z,2.50
2023-04-15T16:53:51.904Z,2.00
2023-04-15T16:56:19.452Z,1.73
2023-04-15T16:58:46.346Z,2.30
2023-04-15T17:01:14.057Z,2.63
2023-04-15T17:03:41.918Z,2.27
2023-04-15T17:06:09.282Z,2.25
2023-04-15T17:08:36.467Z,2.03
2023-04-15T17:11:03.728Z,1.90
2023-04-15T17:13:30.943Z,2.08
2023-04-15T17:15:58.357Z,1.90
2023-04-15T17:18:25.421Z,2.35
2023-04-15T17:20:52.726Z,2.17
2023-04-15T17:23:19.703Z,2.50
2023-04-15T17:25:47.810Z,7.30
2023-04-15T17:28:14.764Z,6.90
2023-04-15T17:30:42.240Z,5.65
2023-04-15T17:33:53.260Z,3.45
2023-04-15T17:35:57.825Z,3.83
2023-04-15T17:38:25.426Z,2.92
2023-04-15T17:40:53.068Z,5.03
2023-04-15T17:43:22.980Z,8.70
2023-04-15T17:45:51.260Z,5.60
2023-04-15T17:48:18.384Z,3.95
2023-04-15T17:50:46.176Z,3.00
2023-04-15T17:53:13.705Z,2.67
2023-04-15T17:55:41.098Z,2.63
2023-04-15T17:58:08.369Z,2.30
2023-04-15T18:00:35.656Z,2.10
2023-04-15T18:03:02.963Z,2.38
2023-04-15T18:05:30.870Z,2.00
2023-04-15T18:08:00.558Z,3.63
2023-04-15T18:10:28.238Z,2.70
2023-04-15T18:12:55.255Z,2.20
2023-04-15T18:15:22.511Z,2.17
2023-04-15T18:17:49.922Z,2.22
2023-04-15T18:20:17.429Z,2.00
2023-04-15T18:22:44.506Z,1.80
2023-04-15T18:25:11.873Z,2.10
2023-04-15T18:27:41.612Z,2.28
2023-04-15T18:30:12.686Z,2.00
2023-04-15T18:32:40.101Z,1.80
2023-04-15T18:35:08.067Z,2.67
2023-04-15T18:37:37.887Z,5.05
2023-04-15T18:40:07.875Z,2.85
2023-04-15T18:42:35.200Z,6.70
2023-04-15T18:45:02.683Z,7.40
2023-04-15T18:47:30.030Z,8.40
2023-04-15T18:49:58.569Z,8.88
2023-04-15T18:52:25.586Z,17.40
2023-04-15T18:54:53.048Z,12.60
2023-04-15T18:57:23.451Z,5.40
2023-04-15T18:59:53.073Z,9.43
2023-04-15T19:02:20.137Z,5.80
2023-04-15T19:04:47.517Z,5.18
2023-04-15T19:07:14.448Z,3.28
2023-04-15T19:09:42.122Z,3.30
2023-04-15T19:12:09.312Z,4.43
2023-04-15T19:14:36.693Z,4.32
2023-04-15T19:17:03.860Z,3.92
2023-04-15T19:19:32.106Z,5.95
2023-04-15T19:21:59.904Z,3.73
2023-04-15T19:24:27.513Z,3.85
2023-04-15T19:26:54.777Z,2.78
2023-04-15T19:29:23.078Z,2.70
2023-04-15T19:31:50.128Z,3.28
2023-04-15T19:34:17.552Z,2.90
2023-04-15T19:36:44.549Z,2.92
2023-04-15T19:39:11.962Z,2.40
2023-04-15T19:41:39.476Z,2.30
2023-04-15T19:44:06.912Z,2.67
2023-04-15T19:46:34.196Z,2.80
2023-04-15T19:49:01.660Z,2.60
2023-04-15T19:51:28.708Z,2.53
2023-04-15T19:53:57.107Z,2.92
2023-04-15T19:56:24.268Z,2.70
2023-04-15T19:58:52.956Z,2.50
2023-04-15T20:01:20.490Z,3.13
2023-04-15T20:03:48.367Z,3.72
2023-04-15T20:06:15.890Z,3.20
2023-04-15T20:08:43.348Z,3.80
2023-04-15T20:11:10.862Z,3.23
2023-04-15T20:13:42.543Z,2.55
2023-04-15T20:16:09.975Z,2.70
2023-04-15T20:18:37.315Z,3.20
2023-04-15T20:21:04.308Z,2.80
2023-04-15T20:23:31.563Z,3.37
2023-04-15T20:25:58.432Z,3.17
2023-04-15T20:28:27.640Z,3.88
2023-04-15T20:30:54.584Z,3.70
2023-04-15T20:33:22.508Z,3.35
2023-04-15T20:35:49.520Z,3.10
2023-04-15T20:38:16.820Z,2.60
2023-04-15T20:40:43.791Z,2.80
2023-04-15T20:43:11.193Z,3.08
2023-04-15T20:45:38.881Z,3.10
2023-04-15T20:48:06.535Z,3.07
2023-04-15T20:50:33.574Z,3.35
2023-04-15T20:53:01.037Z,3.03
2023-04-15T20:55:30.178Z,3.28
2023-04-15T20:57:59.182Z,3.10
2023-04-15T21:00:26.208Z,3.57
2023-04-15T21:02:53.842Z,3.13
2023-04-15T21:05:21.114Z,3.20
2023-04-15T21:07:48.423Z,3.40
2023-04-15T21:10:15.650Z,3.20
2023-04-15T21:12:42.962Z,3.50
2023-04-15T21:15:10.437Z,3.22
2023-04-15T21:17:37.968Z,4.72
2023-04-15T21:20:05.378Z,5.45
2023-04-15T21:22:32.681Z,5.35
2023-04-15T21:24:59.774Z,4.00
2023-04-15T21:27:27.061Z,4.30
2023-04-15T21:29:54.092Z,4.88
2023-04-15T21:32:21.396Z,4.30
2023-04-15T21:34:48.368Z,4.32
2023-04-15T21:37:15.991Z,4.70
2023-04-15T21:39:42.877Z,4.07
2023-04-15T21:42:10.204Z,4.30
2023-04-15T21:44:37.173Z,3.88
2023-04-15T21:47:04.466Z,3.80
2023-04-15T21:49:31.461Z,4.13
2023-04-15T21:52:01.427Z,4.13
2023-04-15T21:54:28.718Z,4.47
2023-04-15T21:56:57.121Z,4.50
2023-04-15T21:59:23.988Z,4.05
2023-04-15T22:01:51.760Z,4.30
2023-04-15T22:04:19.024Z,4.38
2023-04-15T22:06:47.093Z,4.15
2023-04-15T22:09:14.480Z,3.67
2023-04-15T22:11:41.870Z,4.13
2023-04-15T22:14:09.391Z,4.10
2023-04-15T22:16:37.075Z,3.40
2023-04-15T22:19:04.299Z,4.43
2023-04-15T22:21:32.045Z,3.38
2023-04-15T22:24:34.352Z,4.70
2023-04-15T22:26:46.115Z,3.90
2023-04-15T22:29:13.117Z,3.33
2023-04-15T22:31:40.789Z,3.20
2023-04-15T22:34:08.691Z,3.75
2023-04-15T22:36:35.992Z,2.83
2023-04-15T22:39:03.202Z,3.13
2023-04-15T22:41:30.784Z,3.00
2023-04-15T22:43:57.687Z,3.00
2023-04-15T22:46:24.958Z,2.70
2023-04-15T22:48:51.920Z,2.72
2023-04-15T22:51:23.634Z,2.93
2023-04-15T22:53:50.651Z,2.72
2023-04-15T22:56:21.957Z,3.17
2023-04-15T22:58:49.631Z,2.80
2023-04-15T23:01:18.002Z,3.30
2023-04-15T23:03:57.279Z,3.10
2023-04-15T23:06:29.789Z,2.70
2023-04-15T23:08:56.686Z,2.88
2023-04-15T23:11:23.910Z,2.85
2023-04-15T23:13:50.889Z,3.13
2023-04-15T23:16:18.147Z,3.40
2023-04-15T23:18:45.037Z,4.10
2023-04-15T23:21:12.298Z,3.90
2023-04-15T23:23:39.738Z,4.15
2023-04-15T23:26:07.194Z,3.83
2023-04-15T23:28:34.093Z,3.83
2023-04-15T23:31:01.372Z,3.60
2023-04-15T23:33:28.381Z,3.70
2023-04-15T23:35:55.717Z,3.90
2023-04-15T23:38:22.614Z,4.03
2023-04-15T23:40:51.287Z,3.75
2023-04-15T23:43:18.148Z,3.43
2023-04-15T23:45:45.431Z,3.70
2023-04-15T23:48:12.314Z,4.28
2023-04-15T23:50:39.577Z,4.60
2023-04-15T23:53:06.559Z,3.92
2023-04-15T23:55:33.866Z,3.97
2023-04-15T23:58:00.907Z,4.20
